Time;durP1;ratioP1;P1;durP2;ratioP2;P2;SDS_P1;SDS_P2;PMS_P1;PMS_P2;Temp;Humidity;BMP_temperature;BMP_pressure;BME280_temperature;BME280_humidity;BME280_pressure;Samples;Min_cycle;Max_cycle;Signal;HPM_P1;HPM_P2
2022/06/15 00:00:40;;;;;;;6.80;5.55;;;12.20;99.90;;;;;;5052492;28;20052;-73
2022/06/15 00:03:05;;;;;;;6.82;5.40;;;12.20;99.90;;;;;;5035590;28;20123;-73
2022/06/15 00:05:31;;;;;;;7.90;4.90;;;12.20;99.90;;;;;;5052178;28;20116;-74
2022/06/15 00:07:57;;;;;;;6.20;5.60;;;12.20;99.90;;;;;;5052561;28;20064;-73
2022/06/15 00:10:23;;;;;;;9.63;5.43;;;12.10;99.90;;;;;;5070625;28;20113;-73
2022/06/15 00:12:49;;;;;;;9.20;5.05;;;12.10;99.90;;;;;;5052155;28;20041;-73
2022/06/15 00:15:15;;;;;;;7.20;6.07;;;12.00;99.90;;;;;;5052464;28;20040;-72
2022/06/15 00:17:41;;;;;;;9.57;6.63;;;12.00;99.90;;;;;;5052155;28;20040;-73
2022/06/15 00:20:08;;;;;;;9.35;6.43;;;11.90;99.90;;;;;;5070101;28;20110;-72
2022/06/15 00:22:33;;;;;;;8.63;6.35;;;11.90;99.90;;;;;;5070177;28;20073;-72
2022/06/15 00:24:59;;;;;;;8.45;5.95;;;11.80;99.90;;;;;;5069898;28;20057;-72
2022/06/15 00:27:25;;;;;;;7.93;6.25;;;11.80;99.90;;;;;;5051910;28;20473;-74
2022/06/15 00:29:50;;;;;;;6.40;5.70;;;11.70;99.90;;;;;;5052060;28;20393;-73
2022/06/15 00:32:16;;;;;;;6.70;5.88;;;11.70;99.90;;;;;;5051928;28;20040;-73
2022/06/15 00:34:42;;;;;;;8.82;6.40;;;11.70;99.90;;;;;;5072491;28;20097;-73
2022/06/15 00:37:07;;;;;;;8.05;6.63;;;11.70;99.90;;;;;;5056115;28;20151;-73
2022/06/15 00:39:34;;;;;;;7.03;5.32;;;11.60;99.90;;;;;;5056117;28;20041;-73
2022/06/15 00:42:00;;;;;;;7.15;5.13;;;11.60;99.90;;;;;;5055910;28;20086;-73
2022/06/15 00:44:29;;;;;;;9.00;5.60;;;11.60;99.90;;;;;;5039126;28;20040;-73
2022/06/15 00:46:59;;;;;;;7.25;5.63;;;11.60;99.90;;;;;;5055775;28;20032;-73
2022/06/15 00:49:43;;;;;;;6.97;5.53;;;11.60;99.90;;;;;;5055788;28;20048;-74
2022/06/15 00:52:13;;;;;;;6.65;5.88;;;11.60;99.90;;;;;;5055598;28;20374;-74
2022/06/15 00:54:40;;;;;;;7.10;5.47;;;11.60;99.90;;;;;;5055624;28;20082;-74
2022/06/15 00:57:06;;;;;;;9.55;5.85;;;11.60;99.90;;;;;;5055788;28;20037;-74
2022/06/15 00:59:46;;;;;;;7.35;5.32;;;11.60;99.90;;;;;;5055825;28;20075;-73
2022/06/15 01:02:11;;;;;;;9.68;6.60;;;11.60;99.90;;;;;;5055641;28;20272;-73
2022/06/15 01:04:49;;;;;;;8.93;6.55;;;11.50;99.90;;;;;;5073466;28;20036;-73
2022/06/15 01:07:21;;;;;;;7.47;6.00;;;11.50;99.90;;;;;;5055398;28;20049;-73
2022/06/15 01:09:58;;;;;;;8.27;5.97;;;11.50;99.90;;;;;;5055461;28;20402;-73
2022/06/15 01:12:36;;;;;;;7.10;6.20;;;11.50;99.90;;;;;;5055211;28;20040;-73
2022/06/15 01:15:58;;;;;;;9.88;6.05;;;11.40;99.90;;;;;;5038424;28;20074;-73
2022/06/15 01:18:51;;;;;;;7.90;5.13;;;11.40;99.90;;;;;;4975153;28;20531;-73
2022/06/15 01:21:28;;;;;;;7.47;4.97;;;11.40;99.90;;;;;;5038754;28;20041;-73
2022/06/15 01:24:06;;;;;;;7.45;5.68;;;11.40;99.90;;;;;;5055104;28;20049;-73
2022/06/15 01:26:38;;;;;;;8.60;6.07;;;11.40;99.90;;;;;;5071789;28;20367;-73
2022/06/15 01:29:21;;;;;;;8.95;5.80;;;11.30;99.90;;;;;;5055237;28;20367;-74
2022/06/15 01:31:58;;;;;;;6.55;5.00;;;11.40;99.90;;;;;;5055267;28;20357;-73
2022/06/15 01:35:11;;;;;;;7.45;5.25;;;11.30;99.90;;;;;;5054848;28;20044;-73
2022/06/15 01:38:20;;;;;;;7.80;4.93;;;11.30;99.90;;;;;;5038425;28;20040;-73
2022/06/15 01:40:58;;;;;;;7.80;5.10;;;11.30;99.90;;;;;;5054767;28;20098;-73
2022/06/15 01:43:27;;;;;;;8.05;5.30;;;11.20;99.90;;;;;;5054962;28;20036;-73
2022/06/15 01:45:55;;;;;;;8.15;5.63;;;11.10;99.90;;;;;;5053445;28;20044;-73
2022/06/15 01:48:21;;;;;;;8.50;6.35;;;11.20;99.90;;;;;;5054715;28;20089;-73
2022/06/15 01:51:02;;;;;;;7.68;6.32;;;11.10;99.90;;;;;;5055149;28;20052;-73
2022/06/15 01:53:30;;;;;;;6.85;5.65;;;11.00;99.90;;;;;;5054599;28;20063;-73
2022/06/15 01:56:13;;;;;;;7.07;6.38;;;11.00;99.90;;;;;;5054582;28;20501;-73
2022/06/15 01:58:42;;;;;;;7.55;6.38;;;10.90;99.90;;;;;;5054635;28;20048;-73
2022/06/15 02:01:20;;;;;;;7.22;6.32;;;10.90;99.90;;;;;;5054520;28;20059;-73
2022/06/15 02:04:08;;;;;;;8.23;6.38;;;10.80;99.90;;;;;;5054382;28;20127;-73
2022/06/15 02:06:38;;;;;;;13.15;8.02;;;10.80;99.90;;;;;;5054300;28;20052;-73
2022/06/15 02:09:19;;;;;;;9.00;7.75;;;10.90;99.90;;;;;;5072287;28;20119;-73
2022/06/15 02:11:45;;;;;;;8.85;7.97;;;10.90;99.90;;;;;;5072437;28;20044;-73
2022/06/15 02:14:26;;;;;;;10.60;8.00;;;10.80;99.90;;;;;;5054206;28;20106;-74
2022/06/15 02:17:00;;;;;;;11.43;8.60;;;10.90;99.90;;;;;;5054438;28;20094;-74
2022/06/15 02:19:39;;;;;;;9.30;7.25;;;10.90;99.90;;;;;;5053991;28;20048;-73
2022/06/15 02:22:10;;;;;;;10.32;7.68;;;10.90;99.90;;;;;;5054066;28;20045;-73
2022/06/15 02:24:37;;;;;;;10.40;7.50;;;10.80;99.90;;;;;;5053823;28;20064;-73
2022/06/15 02:27:06;;;;;;;8.43;6.88;;;10.80;99.90;;;;;;5053866;28;20119;-74
2022/06/15 02:29:34;;;;;;;9.30;6.63;;;10.80;99.90;;;;;;5053788;28;20036;-73
2022/06/15 02:32:00;;;;;;;10.85;7.07;;;10.80;99.90;;;;;;5054027;28;20128;-73
2022/06/15 02:34:27;;;;;;;10.85;6.45;;;10.80;99.90;;;;;;5053719;28;20051;-73
2022/06/15 02:36:54;;;;;;;7.55;6.53;;;10.80;99.90;;;;;;5054384;28;20096;-73
2022/06/15 02:39:20;;;;;;;7.03;6.30;;;10.80;99.90;;;;;;5037196;28;20044;-73
2022/06/15 02:41:45;;;;;;;8.55;6.88;;;10.70;99.90;;;;;;5053960;28;20052;-73
2022/06/15 02:44:16;;;;;;;8.07;6.40;;;10.70;99.90;;;;;;5053544;28;20041;-73
2022/06/15 02:46:45;;;;;;;7.05;5.85;;;10.70;99.90;;;;;;5053558;28;20063;-73
2022/06/15 02:49:11;;;;;;;7.82;5.63;;;10.70;99.90;;;;;;5070067;28;20055;-73
2022/06/15 02:52:05;;;;;;;7.03;5.75;;;10.70;99.90;;;;;;5053725;28;20381;-73
2022/06/15 02:54:42;;;;;;;6.60;6.00;;;10.70;99.90;;;;;;5050999;28;20106;-73
2022/06/15 02:57:08;;;;;;;9.23;6.05;;;10.70;99.90;;;;;;5053006;28;20119;-73
2022/06/15 02:59:35;;;;;;;9.57;5.95;;;10.60;99.90;;;;;;5053527;28;20147;-74
2022/06/15 03:02:01;;;;;;;6.72;6.03;;;10.60;99.90;;;;;;5053332;28;20055;-73
2022/06/15 03:04:26;;;;;;;7.20;5.68;;;10.60;99.90;;;;;;5053155;28;20045;-73
2022/06/15 03:06:52;;;;;;;8.18;6.30;;;10.50;99.90;;;;;;5052998;28;20244;-73
2022/06/15 03:09:18;;;;;;;7.78;5.95;;;10.50;99.90;;;;;;5036512;28;20493;-73
2022/06/15 03:11:45;;;;;;;8.65;6.28;;;10.50;99.90;;;;;;5052962;28;20052;-73
2022/06/15 03:14:13;;;;;;;10.18;6.60;;;10.50;99.90;;;;;;5070970;28;20052;-73
2022/06/15 03:16:43;;;;;;;10.10;6.68;;;10.50;99.90;;;;;;5052421;28;20048;-73
2022/06/15 03:19:12;;;;;;;8.75;7.00;;;10.40;99.90;;;;;;5052624;28;20108;-74
2022/06/15 03:21:38;;;;;;;9.10;6.78;;;10.40;99.90;;;;;;5052723;28;20047;-73
2022/06/15 03:24:05;;;;;;;8.50;6.68;;;10.50;99.90;;;;;;5070719;28;20383;-73
2022/06/15 03:26:31;;;;;;;9.55;6.72;;;10.50;99.90;;;;;;5069368;28;20127;-73
2022/06/15 03:28:56;;;;;;;8.18;6.70;;;10.50;99.90;;;;;;5052687;28;20107;-73
2022/06/15 03:31:22;;;;;;;8.85;6.45;;;10.50;99.90;;;;;;5052730;28;20093;-73
2022/06/15 03:33:47;;;;;;;8.73;6.57;;;10.50;99.90;;;;;;5036088;28;20048;-73
2022/06/15 03:36:13;;;;;;;7.93;6.38;;;10.50;99.90;;;;;;5052909;28;20049;-74
2022/06/15 03:38:39;;;;;;;10.40;7.43;;;10.60;99.90;;;;;;5036213;28;20331;-74
2022/06/15 03:41:05;;;;;;;11.82;6.55;;;10.60;99.90;;;;;;5052721;28;20083;-73
2022/06/15 03:43:30;;;;;;;10.05;6.72;;;10.70;99.90;;;;;;5052950;28;20489;-73
2022/06/15 03:45:56;;;;;;;7.60;6.65;;;10.70;99.90;;;;;;5070383;28;20421;-73
2022/06/15 03:48:22;;;;;;;8.85;6.45;;;10.70;99.90;;;;;;5070450;28;20064;-73
2022/06/15 03:50:48;;;;;;;8.55;6.13;;;10.70;99.90;;;;;;5036013;28;20489;-73
2022/06/15 03:53:14;;;;;;;8.95;7.15;;;10.80;99.90;;;;;;5052441;28;20040;-74
2022/06/15 03:55:40;;;;;;;8.02;6.18;;;10.70;99.90;;;;;;5070458;28;20036;-73
2022/06/15 03:58:06;;;;;;;7.13;5.18;;;10.70;99.90;;;;;;5052365;28;20481;-73
2022/06/15 04:00:33;;;;;;;7.00;5.78;;;10.70;99.90;;;;;;5070320;28;20089;-72
2022/06/15 04:02:59;;;;;;;7.63;5.32;;;10.70;99.90;;;;;;5035608;28;20575;-72
2022/06/15 04:05:50;;;;;;;8.38;5.28;;;10.80;99.90;;;;;;5035339;28;20489;-72
2022/06/15 04:08:35;;;;;;;7.00;5.85;;;10.80;99.90;;;;;;5051503;28;20036;-72
2022/06/15 04:11:09;;;;;;;8.25;6.10;;;10.90;99.90;;;;;;5052393;28;20047;-72
2022/06/15 04:13:37;;;;;;;9.82;7.10;;;11.00;99.90;;;;;;5052206;28;20063;-72
2022/06/15 04:16:06;;;;;;;12.05;8.10;;;11.10;99.90;;;;;;5052071;28;20052;-72
2022/06/15 04:18:32;;;;;;;12.48;7.65;;;11.10;99.90;;;;;;5052086;28;20044;-73
2022/06/15 04:20:58;;;;;;;11.30;7.50;;;11.20;99.90;;;;;;5052028;28;20055;-72
2022/06/15 04:23:23;;;;;;;8.30;7.47;;;11.30;99.90;;;;;;5051854;28;20064;-72
2022/06/15 04:25:51;;;;;;;8.93;6.90;;;11.40;99.90;;;;;;5035428;28;20055;-72
2022/06/15 04:28:18;;;;;;;8.35;7.25;;;11.60;99.90;;;;;;5052070;28;20056;-72
2022/06/15 04:30:44;;;;;;;8.68;7.20;;;11.70;99.90;;;;;;5035481;28;20048;-72
2022/06/15 04:33:10;;;;;;;9.32;6.65;;;11.70;99.90;;;;;;5051945;28;20046;-72
2022/06/15 04:35:36;;;;;;;10.30;7.28;;;11.80;99.90;;;;;;5052261;28;20585;-73
2022/06/15 04:38:02;;;;;;;12.18;6.38;;;11.90;99.90;;;;;;5051904;28;20048;-73
2022/06/15 04:40:28;;;;;;;8.25;6.75;;;11.90;99.90;;;;;;5035356;28;20041;-73
2022/06/15 04:42:54;;;;;;;8.85;6.78;;;12.10;99.90;;;;;;5051768;28;20156;-73
2022/06/15 04:45:19;;;;;;;9.27;6.55;;;12.20;99.90;;;;;;5051749;28;20460;-73
2022/06/15 04:47:45;;;;;;;8.82;6.05;;;12.30;99.90;;;;;;5051730;28;20036;-73
2022/06/15 04:50:13;;;;;;;8.60;6.03;;;12.40;99.90;;;;;;5052025;28;20033;-73
2022/06/15 04:52:43;;;;;;;7.45;6.63;;;12.60;99.90;;;;;;5051647;28;20040;-73
2022/06/15 04:55:12;;;;;;;7.20;5.90;;;12.70;99.90;;;;;;5052053;28;20052;-73
2022/06/15 04:57:38;;;;;;;7.93;6.65;;;12.90;99.90;;;;;;5051913;28;20045;-73
2022/06/15 05:00:07;;;;;;;9.10;6.35;;;12.90;99.90;;;;;;5052138;28;20046;-73
2022/06/15 05:02:33;;;;;;;8.70;6.60;;;13.00;99.90;;;;;;5051998;28;20033;-73
2022/06/15 05:04:59;;;;;;;8.35;6.93;;;13.00;99.90;;;;;;5051990;28;20474;-73
2022/06/15 05:07:25;;;;;;;10.73;7.18;;;13.10;99.90;;;;;;5051784;28;20048;-73
2022/06/15 05:09:51;;;;;;;7.88;6.18;;;13.20;99.90;;;;;;5051656;28;20040;-73
2022/06/15 05:12:17;;;;;;;11.75;6.30;;;13.30;99.90;;;;;;5051456;28;20121;-73
2022/06/15 05:14:47;;;;;;;8.07;6.38;;;13.40;99.90;;;;;;5051566;28;20079;-73
2022/06/15 05:17:14;;;;;;;10.25;6.65;;;13.40;99.90;;;;;;5069638;28;20062;-73
2022/06/15 05:19:40;;;;;;;15.27;6.70;;;13.50;99.90;;;;;;5052160;28;20045;-73
2022/06/15 05:22:05;;;;;;;8.80;6.35;;;13.60;99.90;;;;;;5055008;28;20123;-73
2022/06/15 05:24:31;;;;;;;9.35;6.60;;;13.80;99.90;;;;;;5054939;28;20409;-73
2022/06/15 05:26:56;;;;;;;11.45;7.22;;;13.80;99.90;;;;;;5055008;28;20444;-73
2022/06/15 05:29:22;;;;;;;9.70;6.10;;;14.00;99.90;;;;;;5055221;28;20044;-73
2022/06/15 05:31:48;;;;;;;9.80;5.25;;;14.10;99.90;;;;;;5038327;28;20047;-73
2022/06/15 05:34:14;;;;;;;6.53;5.75;;;14.30;99.90;;;;;;5038451;28;20382;-74
2022/06/15 05:36:40;;;;;;;6.85;4.97;;;14.50;99.90;;;;;;5055199;28;20039;-73
2022/06/15 05:39:06;;;;;;;8.05;5.28;;;14.70;99.90;;;;;;5072731;28;20044;-74
2022/06/15 05:41:32;;;;;;;7.55;5.03;;;14.90;99.90;;;;;;5055076;28;20043;-73
2022/06/15 05:44:16;;;;;;;6.10;4.45;;;15.20;99.90;;;;;;5054855;28;20497;-74
2022/06/15 05:46:42;;;;;;;5.20;3.22;;;15.50;99.90;;;;;;5037995;28;20115;-74
2022/06/15 05:49:09;;;;;;;5.30;3.35;;;16.50;99.90;;;;;;5054770;28;20048;-74
2022/06/15 05:51:35;;;;;;;4.75;2.95;;;17.00;99.90;;;;;;5054614;28;20147;-74
2022/06/15 05:54:00;;;;;;;4.13;2.97;;;17.00;99.90;;;;;;5054568;28;20119;-74
2022/06/15 05:56:26;;;;;;;4.47;2.78;;;17.10;99.90;;;;;;5054584;28;20048;-74
2022/06/15 05:58:51;;;;;;;12.60;3.92;;;17.30;99.90;;;;;;5054418;28;20036;-73
2022/06/15 06:01:25;;;;;;;4.93;2.65;;;17.40;99.90;;;;;;5037977;28;20474;-74
2022/06/15 06:03:51;;;;;;;4.88;2.60;;;17.20;99.90;;;;;;5072323;28;20044;-74
2022/06/15 06:06:17;;;;;;;4.03;2.75;;;17.30;99.90;;;;;;5054320;28;20078;-74
2022/06/15 06:08:43;;;;;;;6.60;2.88;;;17.20;99.90;;;;;;5037740;28;20075;-74
2022/06/15 06:11:08;;;;;;;5.88;2.65;;;17.40;99.90;;;;;;5037513;28;20091;-74
2022/06/15 06:13:34;;;;;;;4.78;2.75;;;17.70;99.90;;;;;;5038019;28;20044;-74
2022/06/15 06:15:59;;;;;;;4.38;2.90;;;17.80;99.90;;;;;;5054662;28;20045;-74
2022/06/15 06:18:25;;;;;;;8.65;2.47;;;17.80;99.90;;;;;;5054182;28;20507;-73
2022/06/15 06:20:52;;;;;;;3.67;2.38;;;18.30;99.90;;;;;;5054324;28;20047;-73
2022/06/15 06:23:18;;;;;;;4.70;2.88;;;19.10;99.90;;;;;;5050626;28;20061;-73
2022/06/15 06:25:47;;;;;;;5.88;2.67;;;19.90;99.90;;;;;;5051063;28;20159;-73
2022/06/15 06:28:35;;;;;;;4.70;2.90;;;21.20;99.90;;;;;;5034007;28;20466;-74
2022/06/15 06:31:03;;;;;;;3.63;2.67;;;22.10;98.80;;;;;;5033783;28;20040;-73
2022/06/15 06:33:30;;;;;;;5.65;3.55;;;23.20;98.40;;;;;;5050298;28;20087;-73
2022/06/15 06:35:58;;;;;;;5.13;3.58;;;23.80;95.30;;;;;;5050532;28;20041;-73
2022/06/15 06:38:24;;;;;;;6.78;3.67;;;21.90;95.00;;;;;;5050493;28;20044;-73
2022/06/15 06:40:55;;;;;;;4.60;3.42;;;21.40;96.70;;;;;;5050442;28;20449;-74
2022/06/15 06:43:21;;;;;;;7.17;3.90;;;22.00;97.10;;;;;;5050644;28;20387;-73
2022/06/15 06:45:48;;;;;;;6.30;3.53;;;23.10;95.50;;;;;;5050295;28;20049;-73
2022/06/15 06:48:13;;;;;;;4.60;3.63;;;24.40;93.20;;;;;;5050387;28;20033;-73
2022/06/15 06:50:40;;;;;;;7.13;3.92;;;24.70;91.60;;;;;;5050246;28;20055;-74
2022/06/15 06:53:11;;;;;;;7.45;3.50;;;25.20;89.70;;;;;;5050168;28;20536;-74
2022/06/15 06:55:36;;;;;;;3.55;3.05;;;25.30;87.70;;;;;;5050346;28;20048;-74
2022/06/15 06:58:03;;;;;;;4.95;3.50;;;26.10;85.20;;;;;;5051278;28;20082;-74
2022/06/15 07:00:31;;;;;;;6.22;3.83;;;26.30;87.30;;;;;;5049917;28;20083;-74
2022/06/15 07:03:02;;;;;;;4.65;3.30;;;26.00;83.90;;;;;;5049980;28;20072;-74
2022/06/15 07:05:28;;;;;;;;;;;26.10;84.40;;;;;;5050258;28;20071;-74
2022/06/15 07:07:54;;;;;;;4.88;3.55;;;24.90;83.10;;;;;;5050169;28;20306;-74
2022/06/15 07:10:20;;;;;;;5.60;3.28;;;25.80;83.70;;;;;;5049898;28;20041;-73
2022/06/15 07:12:45;;;;;;;6.28;3.63;;;26.30;83.50;;;;;;5049671;28;20045;-73
2022/06/15 07:15:13;;;;;;;4.95;3.00;;;27.10;81.80;;;;;;5049655;28;20041;-74
2022/06/15 07:17:40;;;;;;;6.00;3.63;;;25.60;78.40;;;;;;5049968;28;20521;-74
2022/06/15 07:20:07;;;;;;;4.25;3.40;;;25.60;82.70;;;;;;5049877;28;20052;-74
2022/06/15 07:22:34;;;;;;;6.95;3.35;;;26.60;80.00;;;;;;5033117;28;20036;-74
2022/06/15 07:24:59;;;;;;;9.10;3.45;;;26.70;79.80;;;;;;5049368;28;20053;-74
2022/06/15 07:27:25;;;;;;;6.63;3.22;;;26.40;79.90;;;;;;5033178;28;20049;-74
2022/06/15 07:29:53;;;;;;;5.00;3.15;;;25.60;78.60;;;;;;5049414;28;20047;-74
2022/06/15 07:32:19;;;;;;;4.68;2.92;;;24.80;79.40;;;;;;5049516;28;20404;-74
2022/06/15 07:34:44;;;;;;;3.97;2.65;;;26.30;80.80;;;;;;5049320;28;20041;-74
2022/06/15 07:37:10;;;;;;;7.57;2.55;;;27.00;77.80;;;;;;5050784;28;20474;-74
2022/06/15 07:39:37;;;;;;;6.60;2.80;;;27.60;73.70;;;;;;5049441;28;20045;-74
2022/06/15 07:42:09;;;;;;;4.47;2.20;;;27.40;72.50;;;;;;5050715;28;20061;-73
2022/06/15 07:44:36;;;;;;;6.47;2.35;;;26.60;73.00;;;;;;5049579;28;20106;-74
2022/06/15 07:50:00;;;;;;;6.43;2.72;;;26.30;74.30;;;;;;5049491;28;20534;-74
2022/06/15 07:52:35;;;;;;;5.78;2.20;;;26.30;73.90;;;;;;5032648;28;20071;-74
2022/06/15 07:55:02;;;;;;;5.68;2.42;;;26.10;72.20;;;;;;5049360;28;20360;-74
2022/06/15 07:57:28;;;;;;;5.43;2.85;;;25.50;72.70;;;;;;5049532;28;20359;-74
2022/06/15 07:59:53;;;;;;;6.97;3.15;;;25.10;75.80;;;;;;5049082;28;20037;-72
2022/06/15 08:02:20;;;;;;;5.80;3.22;;;24.10;79.00;;;;;;5050386;28;20072;-72
2022/06/15 08:04:46;;;;;;;7.28;3.55;;;24.50;80.30;;;;;;5048731;28;20053;-72
2022/06/15 08:07:13;;;;;;;5.93;3.20;;;24.00;81.60;;;;;;5032270;28;20044;-72
2022/06/15 08:09:39;;;;;;;6.43;3.70;;;24.10;80.40;;;;;;5048750;28;20080;-72
2022/06/15 08:12:11;;;;;;;6.13;2.92;;;23.50;81.00;;;;;;5049070;28;20064;-72
2022/06/15 08:14:40;;;;;;;5.72;2.90;;;23.40;81.70;;;;;;5048748;28;20082;-73
2022/06/15 08:17:08;;;;;;;4.80;2.50;;;23.40;82.60;;;;;;5048819;28;20353;-73
2022/06/15 08:19:36;;;;;;;5.10;2.60;;;23.30;82.00;;;;;;5048738;28;20091;-73
2022/06/15 08:22:02;;;;;;;4.57;3.25;;;23.30;81.40;;;;;;5048795;28;20068;-73
2022/06/15 08:24:29;;;;;;;5.53;2.80;;;23.20;81.70;;;;;;5048732;28;20080;-73
2022/06/15 08:26:55;;;;;;;6.15;3.08;;;22.80;84.90;;;;;;5048585;28;20135;-73
2022/06/15 08:29:21;;;;;;;6.15;2.97;;;21.70;86.40;;;;;;5048701;28;20037;-73
2022/06/15 08:31:47;;;;;;;4.10;2.60;;;21.30;89.30;;;;;;5048539;28;20033;-73
2022/06/15 08:34:12;;;;;;;5.45;2.40;;;21.60;89.40;;;;;;5050021;28;20411;-74
2022/06/15 08:36:38;;;;;;;5.43;2.60;;;21.60;87.70;;;;;;5049869;28;20059;-74
2022/06/15 08:39:05;;;;;;;4.88;2.53;;;20.80;89.60;;;;;;5048649;28;20552;-74
2022/06/15 08:42:08;;;;;;;4.78;2.35;;;20.80;90.40;;;;;;5048546;28;20041;-74
2022/06/15 08:44:46;;;;;;;5.65;2.50;;;20.30;90.70;;;;;;5048857;28;20070;-74
2022/06/15 08:47:28;;;;;;;3.72;2.30;;;20.40;92.80;;;;;;5031856;28;20090;-73
2022/06/15 08:50:22;;;;;;;5.70;2.63;;;20.50;91.70;;;;;;5048584;28;20076;-73
2022/06/15 08:53:12;;;;;;;6.05;2.05;;;20.20;92.30;;;;;;5045380;28;20059;-73
2022/06/15 08:55:43;;;;;;;9.02;2.28;;;20.60;91.40;;;;;;5034117;28;20041;-73
2022/06/15 08:58:31;;;;;;;4.75;1.73;;;21.00;89.00;;;;;;5052800;28;20446;-73
2022/06/15 09:01:07;;;;;;;3.58;1.63;;;21.20;87.30;;;;;;5052206;28;20049;-73
2022/06/15 09:03:47;;;;;;;3.70;2.00;;;21.10;82.60;;;;;;5052250;28;20052;-74
2022/06/15 09:06:49;;;;;;;4.43;1.90;;;21.10;85.60;;;;;;5053451;28;20490;-73
2022/06/15 09:09:34;;;;;;;4.43;1.88;;;21.40;83.50;;;;;;5052403;28;20045;-74
2022/06/15 09:12:52;;;;;;;2.97;1.90;;;21.40;83.60;;;;;;5052359;28;20048;-73
2022/06/15 09:15:36;;;;;;;3.67;2.05;;;21.60;83.00;;;;;;5052184;28;20037;-73
2022/06/15 09:18:10;;;;;;;5.43;2.10;;;21.60;85.80;;;;;;5051924;28;20049;-73
2022/06/15 09:20:41;;;;;;;2.83;1.90;;;21.80;84.60;;;;;;5052070;28;20040;-74
2022/06/15 09:23:36;;;;;;;3.58;1.85;;;22.00;84.20;;;;;;5054326;28;20041;-73
2022/06/15 09:26:23;;;;;;;3.95;2.05;;;22.30;84.40;;;;;;5055032;28;20135;-73
2022/06/15 09:28:56;;;;;;;3.33;1.67;;;22.20;85.60;;;;;;5055469;28;20374;-73
2022/06/15 09:31:26;;;;;;;3.58;2.00;;;21.80;74.60;;;;;;5055080;28;20554;-73
2022/06/15 09:34:00;;;;;;;2.70;1.73;;;21.80;80.70;;;;;;5055124;28;20037;-73
2022/06/15 09:36:46;;;;;;;3.05;1.90;;;22.00;80.30;;;;;;5055008;28;20305;-73
2022/06/15 09:39:13;;;;;;;4.70;1.73;;;22.00;80.60;;;;;;5038478;28;20106;-73
2022/06/15 09:41:50;;;;;;;4.57;2.15;;;22.40;81.50;;;;;;5038134;28;20545;-73
2022/06/15 09:44:44;;;;;;;4.07;2.00;;;22.70;79.60;;;;;;5054916;28;20123;-73
2022/06/15 09:47:30;;;;;;;2.92;2.05;;;22.80;78.80;;;;;;5054489;28;20485;-73
2022/06/15 09:50:37;;;;;;;3.67;1.83;;;23.10;79.80;;;;;;5054839;28;20041;-73
2022/06/15 09:53:40;;;;;;;5.45;1.58;;;23.30;81.00;;;;;;5054528;28;20040;-73
2022/06/15 09:56:10;;;;;;;5.32;1.70;;;23.30;76.60;;;;;;5037865;28;20037;-73
2022/06/15 09:58:44;;;;;;;4.30;2.10;;;23.00;74.70;;;;;;5054408;28;20127;-73
2022/06/15 10:01:12;;;;;;;4.60;2.00;;;22.90;75.00;;;;;;5054416;28;20052;-73
2022/06/15 10:03:43;;;;;;;3.63;2.00;;;22.80;77.60;;;;;;5054228;28;20071;-74
2022/06/15 10:06:25;;;;;;;3.33;1.63;;;23.00;76.50;;;;;;5053373;28;20082;-74
2022/06/15 10:08:50;;;;;;;;;;;23.20;77.30;;;;;;5055051;28;20377;-73
2022/06/15 10:11:30;;;;;;;7.63;2.15;;;22.90;74.60;;;;;;5054318;28;19920;-73
2022/06/15 10:13:55;;;;;;;4.63;2.33;;;23.10;76.20;;;;;;5054136;28;20037;-73
2022/06/15 10:16:29;;;;;;;3.30;1.77;;;23.10;76.70;;;;;;5054258;28;20143;-73
2022/06/15 10:18:58;;;;;;;3.30;1.90;;;23.30;77.50;;;;;;5054133;28;20106;-73
2022/06/15 10:21:29;;;;;;;3.00;2.00;;;22.90;76.20;;;;;;5053969;28;20045;-73
2022/06/15 10:24:05;;;;;;;6.13;2.03;;;23.00;74.60;;;;;;5070708;28;20096;-73
2022/06/15 10:26:44;;;;;;;2.58;1.75;;;22.90;77.40;;;;;;5054156;28;20048;-74
2022/06/15 10:29:18;;;;;;;4.15;2.15;;;23.10;77.50;;;;;;5054333;28;20045;-73
2022/06/15 10:32:09;;;;;;;5.25;2.00;;;23.10;77.50;;;;;;5037837;28;20469;-73
2022/06/15 10:34:45;;;;;;;3.33;2.05;;;22.60;76.20;;;;;;5054018;28;20123;-74
2022/06/15 10:37:21;;;;;;;4.80;2.03;;;23.00;79.00;;;;;;5037262;28;20089;-73
2022/06/15 10:39:50;;;;;;;4.63;2.10;;;22.90;77.00;;;;;;5053858;28;20062;-73
2022/06/15 10:42:24;;;;;;;4.60;2.08;;;23.10;77.80;;;;;;5053653;28;20055;-74
2022/06/15 10:44:57;;;;;;;4.70;2.30;;;23.10;76.00;;;;;;5053662;28;20082;-74
2022/06/15 10:47:49;;;;;;;3.60;2.10;;;23.30;75.20;;;;;;5053364;28;20051;-74
2022/06/15 10:50:29;;;;;;;4.18;2.20;;;23.30;76.70;;;;;;5061341;28;20092;-74
2022/06/15 10:53:05;;;;;;;4.57;2.10;;;23.20;73.80;;;;;;5053541;28;20048;-74
2022/06/15 11:04:30;;;;;;;5.57;2.40;;;22.80;75.90;;;;;;5053156;28;20088;-73
2022/06/15 11:07:09;;;;;;;3.72;2.38;;;22.70;75.80;;;;;;5036514;28;20040;-74
2022/06/15 11:09:42;;;;;;;7.30;2.45;;;22.10;74.00;;;;;;5053481;28;20359;-73
2022/06/15 11:12:34;;;;;;;5.38;2.33;;;22.10;75.70;;;;;;5071183;28;20062;-73
2022/06/15 11:15:06;;;;;;;3.65;2.10;;;21.90;75.80;;;;;;5016420;28;20276;-73
2022/06/15 11:20:41;;;;;;;3.45;1.88;;;22.00;76.20;;;;;;5053137;28;20044;-73
2022/06/15 11:23:16;;;;;;;4.45;2.40;;;22.30;74.90;;;;;;5035988;28;20052;-73
2022/06/15 11:25:48;;;;;;;4.00;1.90;;;22.60;78.00;;;;;;5052864;28;20066;-73
2022/06/15 11:28:24;;;;;;;3.90;1.92;;;22.40;76.50;;;;;;5052762;28;20051;-73
2022/06/15 11:31:02;;;;;;;6.03;2.60;;;22.50;77.30;;;;;;5053113;28;20401;-74
2022/06/15 11:33:54;;;;;;;6.72;2.50;;;22.90;78.80;;;;;;5052970;28;20452;-73
2022/06/15 11:36:25;;;;;;;3.42;2.08;;;23.00;78.30;;;;;;5038648;28;20052;-73
2022/06/15 11:39:03;;;;;;;3.33;2.30;;;22.80;76.80;;;;;;5067022;22;20090;-76
2022/06/15 11:41:34;;;;;;;5.20;2.50;;;23.10;79.20;;;;;;5052897;28;20056;-75
2022/06/15 11:44:04;;;;;;;4.50;2.40;;;23.30;78.60;;;;;;5052779;28;20044;-74
2022/06/15 11:47:03;;;;;;;6.65;2.10;;;23.40;79.20;;;;;;5052613;28;20048;-74
2022/06/15 11:49:43;;;;;;;3.05;2.25;;;23.40;78.50;;;;;;5052481;28;20131;-75
2022/06/15 11:52:42;;;;;;;8.27;2.40;;;23.50;76.50;;;;;;5052574;28;20474;-75
2022/06/15 11:55:36;;;;;;;4.68;2.58;;;23.50;74.60;;;;;;5052349;28;20076;-75
2022/06/15 11:58:25;;;;;;;4.13;2.13;;;23.70;76.40;;;;;;5052293;28;20551;-75
2022/06/15 12:01:16;;;;;;;5.15;2.05;;;24.00;75.00;;;;;;5024317;28;20528;-74
2022/06/15 12:04:18;;;;;;;3.50;2.40;;;23.90;74.10;;;;;;5052235;28;20047;-74
2022/06/15 12:06:55;;;;;;;3.88;2.38;;;24.20;74.30;;;;;;5052411;28;20449;-74
2022/06/15 12:09:39;;;;;;;3.47;2.47;;;23.60;71.90;;;;;;5052165;28;20037;-75
2022/06/15 12:12:43;;;;;;;3.08;1.83;;;24.00;75.90;;;;;;5035578;28;20485;-75
2022/06/15 12:15:40;;;;;;;3.90;1.88;;;24.30;77.50;;;;;;5035354;28;20741;-75
2022/06/15 12:18:50;;;;;;;6.28;2.55;;;24.30;76.40;;;;;;5035572;28;20055;-75
2022/06/15 12:21:48;;;;;;;4.15;1.95;;;24.00;71.80;;;;;;5036938;28;20048;-75
2022/06/15 12:24:34;;;;;;;3.00;1.88;;;23.10;73.50;;;;;;5018574;28;20048;-74
2022/06/15 12:27:06;;;;;;;2.85;1.88;;;22.90;71.20;;;;;;5052136;28;20040;-75
2022/06/15 12:29:44;;;;;;;;;;;22.60;74.50;;;;;;5053275;28;20055;-74
2022/06/15 12:35:38;;;;;;;3.85;1.70;;;22.50;76.80;;;;;;5056297;28;20059;-75
2022/06/15 12:38:29;;;;;;;2.92;1.90;;;23.10;73.40;;;;;;5039577;28;20375;-74
2022/06/15 12:42:09;;;;;;;3.90;1.92;;;23.40;75.00;;;;;;5056112;28;20486;-75
2022/06/15 12:43:55;;;;;;;3.67;2.03;;;23.70;74.70;;;;;;5055690;28;20049;-75
2022/06/15 12:46:23;;;;;;;6.30;2.20;;;24.00;76.50;;;;;;5055660;28;20040;-76
2022/06/15 12:49:07;;;;;;;3.50;1.90;;;24.00;71.10;;;;;;5039209;28;20056;-74
2022/06/15 12:51:44;;;;;;;3.55;2.30;;;23.90;72.60;;;;;;5055790;28;20115;-74
2022/06/15 12:54:24;;;;;;;3.05;2.00;;;24.00;73.90;;;;;;5039085;28;20520;-74
2022/06/15 12:57:03;;;;;;;2.70;2.05;;;23.90;73.40;;;;;;5055737;28;20088;-74
2022/06/15 12:59:37;;;;;;;4.47;1.95;;;23.20;74.60;;;;;;5039005;28;20097;-75
2022/06/15 13:02:07;;;;;;;6.55;2.13;;;23.30;75.30;;;;;;5038969;28;20036;-76
2022/06/15 13:05:05;;;;;;;3.90;2.20;;;22.50;75.90;;;;;;5055880;28;20114;-76
2022/06/15 13:07:37;;;;;;;3.47;2.15;;;22.70;80.10;;;;;;5055414;28;20084;-74
2022/06/15 13:10:17;;;;;;;3.85;2.10;;;22.90;77.80;;;;;;5055409;28;20052;-74
2022/06/15 13:12:48;;;;;;;4.85;2.30;;;23.30;79.10;;;;;;5055502;28;20068;-75
2022/06/15 13:15:23;;;;;;;3.83;2.50;;;23.70;79.00;;;;;;5055269;28;20050;-75
2022/06/15 13:18:11;;;;;;;4.90;2.22;;;23.90;76.50;;;;;;5055572;28;20066;-75
2022/06/15 13:20:46;;;;;;;9.07;2.55;;;23.90;77.80;;;;;;5038859;28;20191;-74
2022/06/15 13:23:27;;;;;;;3.13;2.42;;;24.20;77.10;;;;;;5055261;28;20047;-75
2022/06/15 13:25:56;;;;;;;4.53;2.40;;;24.50;77.40;;;;;;5054990;28;20037;-74
2022/06/15 13:28:26;;;;;;;4.32;2.30;;;24.60;77.70;;;;;;5055490;28;20159;-75
2022/06/15 13:30:58;;;;;;;5.45;2.10;;;23.90;75.80;;;;;;5055309;28;20389;-75
2022/06/15 13:33:46;;;;;;;5.57;2.55;;;23.80;78.60;;;;;;5055060;28;20051;-75
2022/06/15 13:36:11;;;;;;;3.03;2.05;;;23.90;77.60;;;;;;5054762;28;20545;-74